Road Town, British Virgin Islands
Current Conditions -  °F | °C
As of 4:53 PM on Thursday 27 Nov 2014 (Local Time) from TJNR Reporting Station
Overcast Overcast  
Wind Chill: 80°   Ceiling: 6000
Heat Index: 83°   Visibility: 10mi
Dew Point: 68°   Wind: 8mph
Humidity: 67%   Direction: 80°E
Pressure: 29.96"   Gusts: NA
Location:  18.43°N, 64.63°W
Report Text: TJNR 272053Z AUTO 08007KT 10SM FEW048 BKN060 OVC090 27/20 A2996 RMK AO2 SLP145 T02670200 55001 $
Loading
Personal Weather Stations






























Interactive Weather Map New forecast layout! Learn more

10-Day Weather Forecast

Advertisements
Track Severe Weather on mobile